Briefing drone pour Vichy (LFLV)

Rechercher une autre localisation

Conditions de vol :


Nous sommes le : Dimanche 02 octobre 2022
Il est 09:15 UTC (11:15 LT)

Lever de soleil : 05:19 UTC (07:19 LT)
Coucher de soleil : 17:51 UTC (19:51 LT)

Météo

L'essentiel des conditions de vol

VIGILANCE MÉTÉO FRANCE - Allier (03)
Pas de vigilances particulieres
CARTES DES FRONTS
METAR de LFLV
LFLV 020900Z AUTO 21005KT 150V300 9999 BKN037 OVC046 19/12 Q1025

Date d'émission: 02/10/2022
Heure d'émission: 09:00 UTC
Vent: 210° (variable du 150° au 300°) pour 5 KT (9 km/h)
Visibilité horizontale: > 10 km
Plafond :
- Nuages morcelés à 3700ft (1128m)
- Couvert à 4600ft (1402m)
Température: 19 °C
Point de rosée: 12 °C
Humidité: 64%
Pression (QNH): 1025 hPa
Prévision 24h pour Vichy
Vent : 33° pour 0 KT (1 km/h)
Temperature Maxi: 13 °C
Temperature Min: 13 °C
Humidité : 92%
Condition : Couvert



Warning: count(): Parameter must be an array or an object that implements Countable in /homepages/6/d509196549/htdocs/droneoxygene/briefing.php on line 743
WEBCAM POUR VICHY

Réglementation

Voler en sécurité

CARTES AERONAUTIQUE 1/500.000
CARTE AZBA (Reseau basse altitude)
CARTES VAC (LFLV)
SUP AIP




Chargement des AIP...
NOTAM (VICHY + Terrain à proximité / FIR )




Chargement des NOTAMS...
CONTACT PREFECTURE 03


Avertissement : Les données mises à disposition sont indicatives. Oxygène Drone ne pourra être tenu responsable de dégâts causés aux biens et aux personnes.